createdAt,value
2019-04-27T00:02:39.820Z,1.03
2019-04-27T00:05:32.466Z,1.10
2019-04-27T00:08:06.184Z,0.90
2019-04-27T00:10:59.824Z,0.87
2019-04-27T00:13:27.484Z,0.90
2019-04-27T00:16:24.475Z,1.07
2019-04-27T00:19:15.414Z,0.90
2019-04-27T00:21:57.885Z,0.90
2019-04-27T00:24:27.045Z,0.90
2019-04-27T00:26:55.992Z,0.80
2019-04-27T00:29:25.991Z,0.90
2019-04-27T00:31:55.739Z,0.87
2019-04-27T00:34:25.237Z,0.90
2019-04-27T00:37:09.821Z,1.00
2019-04-27T00:39:55.913Z,1.07
2019-04-27T00:42:24.838Z,1.00
2019-04-27T00:44:54.205Z,0.90
2019-04-27T00:47:23.995Z,0.97
2019-04-27T00:49:54.992Z,0.90
2019-04-27T00:52:24.129Z,0.90
2019-04-27T00:54:53.908Z,0.90
2019-04-27T00:57:43.530Z,1.00
2019-04-27T01:00:33.739Z,0.80
2019-04-27T01:03:09.359Z,1.00
2019-04-27T01:05:38.273Z,0.77
2019-04-27T01:08:07.196Z,1.00
2019-04-27T01:10:36.122Z,0.83
2019-04-27T01:13:06.057Z,0.93
2019-04-27T01:15:35.268Z,0.90
2019-04-27T01:18:11.984Z,1.00
2019-04-27T01:20:35.320Z,1.13
2019-04-27T01:23:04.330Z,0.93
2019-04-27T01:25:51.046Z,0.80
2019-04-27T01:28:28.960Z,1.03
2019-04-27T01:31:02.418Z,1.00
2019-04-27T01:33:31.260Z,0.90
2019-04-27T01:36:00.485Z,1.00
2019-04-27T01:38:29.412Z,1.10
2019-04-27T01:41:00.528Z,0.90
2019-04-27T01:43:30.193Z,0.87
2019-04-27T01:46:01.031Z,1.07
2019-04-27T01:48:31.068Z,1.10
2019-04-27T01:51:00.040Z,1.00
2019-04-27T01:53:30.412Z,1.23
2019-04-27T01:55:59.523Z,1.20
2019-04-27T01:58:29.293Z,1.10
2019-04-27T02:01:18.606Z,1.20
2019-04-27T02:04:09.331Z,1.30
2019-04-27T02:06:38.603Z,1.10
2019-04-27T02:09:10.117Z,1.10
2019-04-27T02:11:39.112Z,1.10
2019-04-27T02:14:09.495Z,1.07
2019-04-27T02:16:39.211Z,1.13
2019-04-27T02:19:09.031Z,0.93
2019-04-27T02:21:39.332Z,1.10
2019-04-27T02:24:09.765Z,1.20
2019-04-27T02:26:39.933Z,0.90
2019-04-27T02:29:23.616Z,0.97
2019-04-27T02:32:14.920Z,1.03
2019-04-27T02:34:50.423Z,1.27
2019-04-27T02:37:20.181Z,0.90
2019-04-27T02:39:50.078Z,1.10
2019-04-27T02:42:20.248Z,1.00
2019-04-27T02:44:49.749Z,1.10
2019-04-27T02:47:20.873Z,1.07
2019-04-27T02:49:50.820Z,1.13
2019-04-27T02:52:43.549Z,1.33
2019-04-27T02:55:12.554Z,0.97
2019-04-27T02:57:41.467Z,1.17
2019-04-27T03:00:11.746Z,1.20
2019-04-27T03:02:44.969Z,1.47
2019-04-27T03:05:22.113Z,1.50
2019-04-27T03:07:51.300Z,1.17
2019-04-27T03:10:20.169Z,1.20
2019-04-27T03:12:54.617Z,1.20
2019-04-27T03:15:41.425Z,1.00
2019-04-27T03:18:25.682Z,1.03
2019-04-27T03:21:03.053Z,1.40
2019-04-27T03:23:31.967Z,1.23
2019-04-27T03:26:12.677Z,1.23
2019-04-27T03:28:41.590Z,1.10
2019-04-27T03:31:13.576Z,1.20
2019-04-27T03:33:42.908Z,1.20
2019-04-27T03:36:13.206Z,1.20
2019-04-27T03:38:42.321Z,1.47
2019-04-27T03:41:11.714Z,1.47
2019-04-27T03:43:40.717Z,1.47
2019-04-27T03:46:10.407Z,1.07
2019-04-27T03:48:40.799Z,1.40
2019-04-27T03:51:30.855Z,1.10
2019-04-27T03:54:31.090Z,1.20
2019-04-27T03:57:04.136Z,1.30
2019-04-27T03:59:35.585Z,1.40
2019-04-27T04:02:04.708Z,1.30
2019-04-27T04:04:33.985Z,1.67
2019-04-27T04:07:14.051Z,1.57
2019-04-27T04:09:43.528Z,1.63
2019-04-27T04:12:24.851Z,1.57
2019-04-27T04:14:54.027Z,1.70
2019-04-27T04:17:23.754Z,1.60
2019-04-27T04:19:57.580Z,1.57
2019-04-27T04:22:23.381Z,1.93
2019-04-27T04:24:52.217Z,1.80
2019-04-27T04:27:21.066Z,1.90
2019-04-27T04:29:49.899Z,1.70
2019-04-27T04:32:19.358Z,1.77
2019-04-27T04:34:50.253Z,1.87
2019-04-27T04:37:19.592Z,1.70
2019-04-27T04:39:53.063Z,1.70
2019-04-27T04:42:43.569Z,1.67
2019-04-27T04:45:23.833Z,1.70
2019-04-27T04:48:02.126Z,1.80
2019-04-27T04:50:30.981Z,1.67
2019-04-27T04:53:00.245Z,1.80
2019-04-27T04:55:30.625Z,1.90
2019-04-27T04:57:59.772Z,1.80
2019-04-27T05:00:30.010Z,2.30
2019-04-27T05:02:59.577Z,1.80
2019-04-27T05:05:29.395Z,2.57
2019-04-27T05:08:00.651Z,1.73
2019-04-27T05:10:31.182Z,1.90
2019-04-27T05:13:00.181Z,2.00
2019-04-27T05:15:29.378Z,1.93
2019-04-27T05:17:59.097Z,2.00
2019-04-27T05:20:39.949Z,2.00
2019-04-27T05:23:09.634Z,1.90
2019-04-27T05:25:39.102Z,2.30
2019-04-27T05:28:09.807Z,2.30
2019-04-27T05:30:39.187Z,2.03
2019-04-27T05:33:08.942Z,2.13
2019-04-27T05:35:40.828Z,2.10
2019-04-27T05:38:12.928Z,1.90
2019-04-27T05:40:40.442Z,1.70
2019-04-27T05:43:10.569Z,1.57
2019-04-27T05:47:11.726Z,1.30
2019-04-27T05:49:44.438Z,1.10
2019-04-27T05:52:29.600Z,1.20
2019-04-27T05:54:59.267Z,1.20
2019-04-27T05:57:31.213Z,1.60
2019-04-27T06:00:02.325Z,1.10
2019-04-27T06:02:30.529Z,0.90
2019-04-27T06:05:00.047Z,1.00
2019-04-27T06:07:29.802Z,0.90
2019-04-27T06:09:59.773Z,1.00
2019-04-27T06:12:29.816Z,1.00
2019-04-27T06:14:59.833Z,1.10
2019-04-27T06:17:30.051Z,1.10
2019-04-27T06:19:59.706Z,0.90
2019-04-27T06:22:29.356Z,1.00
2019-04-27T06:25:00.218Z,0.80
2019-04-27T06:27:30.740Z,0.90
2019-04-27T06:30:00.121Z,1.10
2019-04-27T06:32:29.718Z,0.80
2019-04-27T06:34:59.331Z,1.00
2019-04-27T06:37:29.302Z,1.00
2019-04-27T06:39:59.752Z,1.00
2019-04-27T06:42:29.652Z,1.40
2019-04-27T06:44:59.922Z,1.47
2019-04-27T06:47:29.610Z,1.23
2019-04-27T06:49:59.412Z,1.37
2019-04-27T06:52:39.189Z,1.70
2019-04-27T06:55:09.377Z,1.70
2019-04-27T06:57:39.079Z,1.73
2019-04-27T07:00:09.605Z,2.10
2019-04-27T07:02:39.262Z,2.33
2019-04-27T07:05:08.946Z,2.17
2019-04-27T07:07:39.475Z,2.40
2019-04-27T07:10:08.788Z,2.80
2019-04-27T07:12:40.700Z,2.30
2019-04-27T07:15:08.956Z,2.67
2019-04-27T07:17:38.882Z,2.17
2019-04-27T07:20:09.082Z,2.50
2019-04-27T07:22:39.651Z,2.60
2019-04-27T07:25:09.183Z,2.50
2019-04-27T07:27:39.474Z,3.27
2019-04-27T07:30:11.772Z,3.30
2019-04-27T07:32:41.287Z,4.17
2019-04-27T07:35:11.062Z,3.67
2019-04-27T07:37:39.950Z,3.37
2019-04-27T07:40:09.133Z,3.40
2019-04-27T07:42:40.831Z,2.80
2019-04-27T07:45:19.556Z,3.17
2019-04-27T07:47:49.373Z,2.83
2019-04-27T07:50:19.428Z,3.00
2019-04-27T07:52:48.817Z,2.50
2019-04-27T07:55:18.728Z,2.70
2019-04-27T07:57:49.463Z,2.57
2019-04-27T08:00:19.357Z,2.50
2019-04-27T08:02:48.672Z,2.90
2019-04-27T08:05:19.205Z,3.40
2019-04-27T08:07:49.154Z,3.20
2019-04-27T08:10:19.339Z,2.60
2019-04-27T08:12:49.785Z,2.80
2019-04-27T08:15:19.269Z,3.30
2019-04-27T08:17:49.275Z,2.50
2019-04-27T08:20:21.152Z,2.77
2019-04-27T08:22:52.063Z,2.40
2019-04-27T08:25:23.340Z,2.60
2019-04-27T08:28:00.281Z,2.67
2019-04-27T08:30:45.133Z,2.90
2019-04-27T08:33:14.473Z,2.73
2019-04-27T08:35:43.485Z,2.20
2019-04-27T08:38:12.479Z,2.77
2019-04-27T08:40:41.753Z,3.00
2019-04-27T08:43:10.669Z,2.70
2019-04-27T08:45:40.461Z,2.40
2019-04-27T08:48:09.718Z,2.93
2019-04-27T08:50:41.831Z,2.60
2019-04-27T08:53:09.945Z,3.27
2019-04-27T08:55:41.516Z,2.50
2019-04-27T08:58:10.597Z,2.40
2019-04-27T09:00:39.637Z,2.97
2019-04-27T09:03:09.521Z,2.67
2019-04-27T09:05:39.069Z,2.63
2019-04-27T09:08:30.313Z,2.57
2019-04-27T09:11:30.976Z,3.00
2019-04-27T09:14:10.882Z,2.30
2019-04-27T09:17:05.012Z,2.20
2019-04-27T09:19:59.122Z,2.33
2019-04-27T09:22:28.940Z,2.50
2019-04-27T09:24:59.473Z,2.30
2019-04-27T09:27:29.061Z,2.83
2019-04-27T09:29:59.080Z,2.23
2019-04-27T09:32:28.961Z,2.10
2019-04-27T09:34:58.217Z,2.10
2019-04-27T09:37:27.535Z,2.13
2019-04-27T09:39:56.632Z,2.50
2019-04-27T09:42:26.856Z,2.50
2019-04-27T09:44:56.324Z,2.03
2019-04-27T09:47:31.561Z,3.10
2019-04-27T09:50:00.779Z,11.87
2019-04-27T09:52:29.869Z,8.00
2019-04-27T09:54:58.804Z,3.00
2019-04-27T09:57:28.369Z,2.57
2019-04-27T09:59:57.565Z,2.40
2019-04-27T10:02:26.943Z,2.20
2019-04-27T10:04:56.628Z,2.43
2019-04-27T10:07:26.854Z,2.70
2019-04-27T10:09:56.198Z,2.10
2019-04-27T10:12:26.124Z,2.10
2019-04-27T10:14:55.975Z,1.80
2019-04-27T10:17:25.116Z,2.13
2019-04-27T10:19:53.962Z,2.10
2019-04-27T10:22:22.943Z,2.40
2019-04-27T10:24:52.013Z,2.30
2019-04-27T10:27:25.927Z,2.00
2019-04-27T10:30:17.357Z,2.20
2019-04-27T10:32:46.837Z,2.00
2019-04-27T10:35:16.411Z,2.60
2019-04-27T10:37:45.342Z,2.00
2019-04-27T10:40:16.098Z,2.60
2019-04-27T10:42:48.141Z,2.87
2019-04-27T10:45:17.812Z,2.07
2019-04-27T10:47:49.242Z,2.00
2019-04-27T10:50:18.689Z,2.17
2019-04-27T10:52:53.664Z,3.20
2019-04-27T10:55:18.345Z,3.40
2019-04-27T10:57:47.626Z,2.37
2019-04-27T11:00:21.445Z,1.90
2019-04-27T11:02:50.638Z,2.03
2019-04-27T11:05:35.845Z,2.50
2019-04-27T11:08:06.602Z,1.90
2019-04-27T11:10:36.097Z,2.00
2019-04-27T11:13:06.222Z,1.60
2019-04-27T11:15:37.127Z,2.10
2019-04-27T11:18:06.399Z,1.87
2019-04-27T11:20:36.268Z,1.73
2019-04-27T11:23:09.275Z,1.50
2019-04-27T11:25:36.474Z,2.13
2019-04-27T11:28:05.840Z,3.40
2019-04-27T11:30:35.178Z,2.10
2019-04-27T11:33:06.132Z,2.77
2019-04-27T11:35:53.736Z,3.03
2019-04-27T11:38:22.934Z,2.60
2019-04-27T11:40:51.862Z,2.07
2019-04-27T11:43:20.889Z,2.00
2019-04-27T11:45:50.334Z,1.93
2019-04-27T11:48:19.259Z,2.13
2019-04-27T11:50:48.517Z,1.50
2019-04-27T11:53:22.668Z,1.70
2019-04-27T11:55:48.358Z,1.80
2019-04-27T11:58:17.472Z,1.70
2019-04-27T12:00:46.946Z,2.00
2019-04-27T12:03:16.602Z,2.10
2019-04-27T12:05:46.487Z,1.50
2019-04-27T12:08:16.184Z,1.50
2019-04-27T12:10:46.403Z,1.40
2019-04-27T12:13:16.649Z,2.27
2019-04-27T12:15:46.476Z,1.73
2019-04-27T12:18:15.842Z,1.07
2019-04-27T12:20:45.724Z,1.10
2019-04-27T12:23:16.385Z,1.00
2019-04-27T12:25:46.242Z,1.20
2019-04-27T12:28:27.189Z,0.90
2019-04-27T12:31:21.191Z,1.10
2019-04-27T12:33:50.761Z,1.20
2019-04-27T12:36:20.060Z,1.10
2019-04-27T12:38:49.362Z,2.00
2019-04-27T12:41:18.349Z,2.00
2019-04-27T12:43:47.301Z,0.93
2019-04-27T12:46:16.227Z,1.17
2019-04-27T12:48:46.685Z,1.10
2019-04-27T12:51:15.810Z,1.40
2019-04-27T12:53:57.456Z,1.50
2019-04-27T12:56:46.022Z,1.07
2019-04-27T12:59:33.225Z,1.10
2019-04-27T13:02:02.385Z,1.30
2019-04-27T13:04:31.338Z,1.20
2019-04-27T13:07:00.740Z,0.80
2019-04-27T13:09:29.605Z,1.87
2019-04-27T13:11:58.533Z,1.00
2019-04-27T13:14:27.802Z,0.90
2019-04-27T13:16:56.709Z,1.20
2019-04-27T13:19:25.929Z,1.00
2019-04-27T13:21:55.908Z,0.87
2019-04-27T13:24:26.115Z,1.27
2019-04-27T13:26:55.990Z,1.00
2019-04-27T13:29:25.593Z,1.30
2019-04-27T13:31:55.742Z,1.50
2019-04-27T13:34:25.586Z,1.20
2019-04-27T13:36:56.146Z,1.33
2019-04-27T13:39:25.764Z,2.33
2019-04-27T13:41:56.292Z,2.50
2019-04-27T13:44:26.312Z,2.40
2019-04-27T13:47:20.764Z,1.30
2019-04-27T13:49:58.197Z,1.30
2019-04-27T13:52:29.983Z,2.17
2019-04-27T13:54:59.317Z,1.40
2019-04-27T13:57:28.258Z,2.70
2019-04-27T13:59:57.844Z,1.00
2019-04-27T14:02:32.245Z,1.20
2019-04-27T14:04:57.736Z,1.77
2019-04-27T14:07:26.749Z,2.83
2019-04-27T14:09:56.553Z,3.73
2019-04-27T14:12:25.635Z,3.03
2019-04-27T14:14:54.693Z,1.27
2019-04-27T14:17:23.638Z,2.40
2019-04-27T14:19:53.138Z,3.17
2019-04-27T14:22:22.349Z,1.60
2019-04-27T14:24:51.509Z,2.83
2019-04-27T14:27:22.118Z,3.47
2019-04-27T14:29:51.303Z,1.90
2019-04-27T14:32:20.642Z,2.10
2019-04-27T14:34:50.412Z,1.40
2019-04-27T14:37:19.425Z,1.67
2019-04-27T14:39:49.078Z,1.50
2019-04-27T14:42:19.122Z,3.17
2019-04-27T14:44:48.960Z,2.17
2019-04-27T14:47:18.846Z,1.60
2019-04-27T14:49:49.056Z,1.70
2019-04-27T14:52:18.872Z,1.37
2019-04-27T14:54:50.578Z,1.90
2019-04-27T14:57:20.357Z,1.70
2019-04-27T14:59:50.245Z,1.20
2019-04-27T15:02:19.260Z,1.97
2019-04-27T15:04:48.641Z,1.40
2019-04-27T15:07:18.151Z,1.60
2019-04-27T15:09:49.656Z,1.93
2019-04-27T15:12:18.081Z,1.50
2019-04-27T15:14:47.453Z,1.23
2019-04-27T15:17:17.608Z,1.27
2019-04-27T15:19:53.917Z,1.60
2019-04-27T15:22:27.831Z,1.97
2019-04-27T15:25:09.196Z,1.30
2019-04-27T15:27:37.790Z,1.60
2019-04-27T15:30:11.529Z,2.00
2019-04-27T15:33:00.413Z,2.40
2019-04-27T15:35:40.597Z,2.40
2019-04-27T15:38:23.841Z,1.53
2019-04-27T15:41:10.312Z,1.57
2019-04-27T15:43:41.134Z,1.30
2019-04-27T15:46:10.135Z,1.37
2019-04-27T15:48:39.321Z,1.37
2019-04-27T15:51:16.443Z,1.90
2019-04-27T15:53:41.631Z,1.10
2019-04-27T15:56:10.308Z,1.40
2019-04-27T15:58:39.497Z,1.40
2019-04-27T16:01:11.796Z,1.70
2019-04-27T16:03:40.353Z,1.70
2019-04-27T16:06:11.920Z,1.60
2019-04-27T16:08:45.299Z,2.20
2019-04-27T16:11:16.756Z,1.40
2019-04-27T16:13:42.263Z,1.60
2019-04-27T16:16:14.950Z,1.40
2019-04-27T16:18:50.225Z,1.80
2019-04-27T16:21:20.249Z,1.77
2019-04-27T16:23:50.304Z,2.10
2019-04-27T16:26:19.943Z,2.43
2019-04-27T16:28:53.053Z,1.90
2019-04-27T16:31:20.393Z,1.60
2019-04-27T16:33:49.894Z,1.47
2019-04-27T16:36:19.738Z,1.50
2019-04-27T16:39:08.175Z,1.57
2019-04-27T16:41:37.433Z,1.20
2019-04-27T16:44:06.880Z,1.30
2019-04-27T16:46:39.498Z,1.43
2019-04-27T16:49:13.577Z,1.57
2019-04-27T16:51:40.188Z,1.20
2019-04-27T16:54:11.122Z,1.20
2019-04-27T16:56:38.801Z,1.60
2019-04-27T16:59:26.783Z,1.70
2019-04-27T17:01:41.757Z,1.40
2019-04-27T17:04:13.533Z,1.47
2019-04-27T17:06:45.976Z,1.80
2019-04-27T17:09:11.700Z,1.20
2019-04-27T17:11:43.828Z,1.30
2019-04-27T17:14:22.212Z,1.50
2019-04-27T17:17:08.735Z,1.00
2019-04-27T17:19:45.500Z,0.87
2019-04-27T17:22:14.600Z,1.10
2019-04-27T17:24:47.370Z,0.90
2019-04-27T17:27:22.068Z,0.90
2019-04-27T17:29:57.401Z,0.90
2019-04-27T17:32:33.858Z,1.00
2019-04-27T17:35:05.693Z,1.30
2019-04-27T17:37:33.981Z,0.83
2019-04-27T17:40:02.957Z,1.03
2019-04-27T17:42:32.133Z,1.10
2019-04-27T17:45:00.973Z,0.93
2019-04-27T17:47:30.101Z,1.30
2019-04-27T17:49:59.132Z,1.43
2019-04-27T17:52:28.474Z,1.10
2019-04-27T17:54:59.001Z,1.00
2019-04-27T17:57:30.242Z,1.40
2019-04-27T18:00:03.168Z,1.00
2019-04-27T18:02:33.917Z,1.93
2019-04-27T18:05:00.729Z,1.40
2019-04-27T18:07:30.221Z,1.60
2019-04-27T18:09:59.232Z,1.33
2019-04-27T18:12:28.520Z,1.10
2019-04-27T18:14:58.158Z,1.87
2019-04-27T18:17:28.779Z,1.50
2019-04-27T18:20:00.635Z,1.50
2019-04-27T18:22:36.567Z,0.90
2019-04-27T18:25:06.742Z,1.47
2019-04-27T18:28:14.816Z,1.20
2019-04-27T18:30:56.551Z,1.70
2019-04-27T18:33:25.789Z,2.50
2019-04-27T18:35:59.191Z,2.40
2019-04-27T18:38:25.581Z,2.10
2019-04-27T18:40:54.507Z,1.27
2019-04-27T18:43:23.753Z,2.30
2019-04-27T18:45:52.954Z,1.67
2019-04-27T18:48:35.072Z,2.30
2019-04-27T18:51:09.719Z,2.20
2019-04-27T18:53:38.804Z,2.17
2019-04-27T18:56:10.122Z,2.20
2019-04-27T18:58:38.602Z,1.70
2019-04-27T19:01:08.600Z,1.73
2019-04-27T19:03:39.141Z,1.60
2019-04-27T19:06:08.853Z,1.90
2019-04-27T19:08:38.574Z,2.00
2019-04-27T19:11:09.327Z,1.70
2019-04-27T19:13:40.169Z,1.70
2019-04-27T19:16:09.651Z,1.50
2019-04-27T19:18:39.865Z,1.73
2019-04-27T19:21:08.946Z,1.20
2019-04-27T19:23:38.263Z,1.00
2019-04-27T19:26:23.670Z,1.43
2019-04-27T19:29:11.568Z,1.13
2019-04-27T19:31:50.585Z,1.30
2019-04-27T19:34:19.810Z,1.53
2019-04-27T19:36:48.949Z,1.47
2019-04-27T19:39:18.193Z,1.37
2019-04-27T19:42:00.022Z,1.50
2019-04-27T19:44:18.738Z,1.40
2019-04-27T19:46:49.298Z,1.57
2019-04-27T19:49:19.355Z,1.50
2019-04-27T19:51:48.309Z,1.70
2019-04-27T19:54:17.219Z,2.07
2019-04-27T19:56:46.163Z,1.57
2019-04-27T19:59:25.640Z,1.87
2019-04-27T20:01:58.315Z,1.77
2019-04-27T20:04:32.276Z,1.80
2019-04-27T20:07:01.276Z,2.40
2019-04-27T20:09:39.212Z,2.10
2019-04-27T20:12:10.248Z,2.90
2019-04-27T20:14:57.137Z,3.27
2019-04-27T20:17:31.373Z,2.47
2019-04-27T20:20:01.294Z,3.13
2019-04-27T20:22:30.268Z,3.07
2019-04-27T20:25:01.535Z,2.20
2019-04-27T20:27:32.167Z,3.53
2019-04-27T20:30:02.938Z,3.13
2019-04-27T20:32:31.937Z,2.40
2019-04-27T20:35:01.505Z,2.83
2019-04-27T20:37:31.351Z,2.40
2019-04-27T20:40:01.617Z,2.60
2019-04-27T20:42:31.425Z,2.70
2019-04-27T20:45:02.017Z,2.23
2019-04-27T20:47:31.919Z,2.57
2019-04-27T20:50:01.714Z,2.50
2019-04-27T20:52:56.521Z,2.20
2019-04-27T20:55:25.577Z,2.20
2019-04-27T20:58:01.803Z,2.90
2019-04-27T21:00:25.433Z,2.90
2019-04-27T21:03:02.004Z,2.20
2019-04-27T21:05:53.885Z,2.87
2019-04-27T21:08:23.456Z,2.03
2019-04-27T21:10:52.637Z,2.20
2019-04-27T21:13:21.677Z,1.77
2019-04-27T21:15:50.990Z,2.90
2019-04-27T21:18:21.704Z,2.77
2019-04-27T21:20:51.236Z,2.70
2019-04-27T21:23:21.045Z,2.17
2019-04-27T21:25:51.793Z,2.83
2019-04-27T21:28:21.563Z,2.50
2019-04-27T21:30:50.749Z,2.50
2019-04-27T21:33:21.549Z,3.27
2019-04-27T21:35:51.206Z,2.60
2019-04-27T21:38:20.428Z,2.93
2019-04-27T21:40:49.656Z,2.80
2019-04-27T21:43:21.694Z,3.17
2019-04-27T21:45:51.144Z,2.13
2019-04-27T21:48:21.183Z,2.80
2019-04-27T21:50:51.638Z,2.63
2019-04-27T21:53:31.319Z,2.60
2019-04-27T21:56:01.754Z,2.70
2019-04-27T21:58:31.670Z,1.90
2019-04-27T22:01:12.919Z,2.77
2019-04-27T22:03:41.848Z,2.93
2019-04-27T22:06:11.622Z,2.67
2019-04-27T22:08:41.084Z,2.37
2019-04-27T22:11:11.746Z,2.13
2019-04-27T22:13:41.028Z,2.33
2019-04-27T22:16:12.661Z,2.10
2019-04-27T22:18:41.701Z,2.03
2019-04-27T22:21:11.559Z,2.90
2019-04-27T22:23:50.867Z,1.83
2019-04-27T22:26:21.327Z,3.00
2019-04-27T22:28:52.080Z,2.00
2019-04-27T22:31:21.332Z,2.43
2019-04-27T22:33:53.849Z,2.00
2019-04-27T22:36:21.337Z,2.40
2019-04-27T22:38:51.586Z,2.50
2019-04-27T22:41:33.208Z,2.20
2019-04-27T22:44:33.784Z,2.63
2019-04-27T22:47:03.148Z,2.80
2019-04-27T22:49:51.468Z,2.63
2019-04-27T22:52:21.866Z,2.30
2019-04-27T22:54:51.325Z,1.83
2019-04-27T22:57:31.787Z,2.07
2019-04-27T23:00:15.869Z,1.97
2019-04-27T23:02:48.268Z,2.73
2019-04-27T23:05:17.424Z,2.30
2019-04-27T23:07:46.408Z,2.47
2019-04-27T23:10:15.778Z,2.20
2019-04-27T23:12:44.696Z,2.77
2019-04-27T23:15:17.823Z,2.30
2019-04-27T23:17:52.151Z,2.27
2019-04-27T23:20:21.265Z,2.50
2019-04-27T23:22:50.477Z,2.20
2019-04-27T23:25:19.469Z,3.20
2019-04-27T23:27:48.577Z,2.50
2019-04-27T23:30:18.797Z,3.00
2019-04-27T23:32:51.306Z,1.93
2019-04-27T23:35:20.065Z,2.20
2019-04-27T23:37:50.765Z,2.60
2019-04-27T23:40:21.869Z,2.60
2019-04-27T23:42:51.603Z,2.60
2019-04-27T23:45:22.398Z,2.30
2019-04-27T23:47:51.690Z,2.27
2019-04-27T23:50:21.886Z,2.50
2019-04-27T23:53:22.354Z,2.70
2019-04-27T23:55:51.360Z,2.30
2019-04-27T23:58:20.190Z,1.97
